Time;durP1;ratioP1;P1;durP2;ratioP2;P2;SDS_P1;SDS_P2;PMS_P1;PMS_P2;Temp;Humidity;BMP_temperature;BMP_pressure;BME280_temperature;BME280_humidity;BME280_pressure;Samples;Min_cycle;Max_cycle;Signal;HPM_P1;HPM_P2
2021/04/22 00:02:21;;;;;;;3.73;1.83;;;12.10;51.40;;;;;;5034870;28;20060;-82
2021/04/22 00:04:47;;;;;;;4.57;1.90;;;12.20;51.50;;;;;;5035746;28;20030;-83
2021/04/22 00:07:18;;;;;;;3.57;2.23;;;12.20;52.00;;;;;;5033705;28;20471;-83
2021/04/22 00:09:44;;;;;;;2.53;1.83;;;12.20;51.70;;;;;;5027192;28;20107;-82
2021/04/22 00:12:10;;;;;;;5.10;2.10;;;12.20;51.80;;;;;;5035037;28;20104;-82
2021/04/22 00:14:37;;;;;;;4.20;2.27;;;12.10;52.10;;;;;;5033193;28;20022;-83
2021/04/22 00:17:07;;;;;;;3.80;2.37;;;12.10;52.30;;;;;;5033874;28;20111;-83
2021/04/22 00:19:33;;;;;;;4.17;2.53;;;12.00;52.50;;;;;;5033069;28;20032;-83
2021/04/22 00:21:59;;;;;;;4.57;2.10;;;12.00;52.50;;;;;;5033097;28;20791;-82
2021/04/22 00:24:25;;;;;;;6.03;1.83;;;12.00;52.50;;;;;;5033637;28;20037;-82
2021/04/22 00:26:50;;;;;;;3.60;2.03;;;12.10;52.40;;;;;;5032848;28;20029;-82
2021/04/22 00:29:16;;;;;;;2.53;1.70;;;12.00;52.30;;;;;;5028071;28;20459;-82
2021/04/22 00:31:42;;;;;;;4.60;2.40;;;12.00;52.40;;;;;;5031582;28;20030;-82
2021/04/22 00:34:07;;;;;;;5.13;2.50;;;12.00;52.60;;;;;;5033454;28;20485;-83
2021/04/22 00:36:33;;;;;;;6.40;2.93;;;12.00;52.70;;;;;;5032092;28;20034;-82
2021/04/22 00:38:59;;;;;;;6.60;3.20;;;12.10;52.70;;;;;;5033303;28;20018;-82
2021/04/22 00:41:25;;;;;;;3.27;2.67;;;12.10;52.70;;;;;;5026889;28;20030;-83
2021/04/22 00:43:53;;;;;;;3.73;2.57;;;12.00;52.60;;;;;;5034773;28;20521;-83
2021/04/22 00:46:19;;;;;;;4.27;2.93;;;11.90;52.70;;;;;;5028403;28;20061;-83
2021/04/22 00:48:45;;;;;;;4.40;2.97;;;11.90;52.90;;;;;;5016452;28;20038;-83
2021/04/22 00:51:10;;;;;;;4.40;2.77;;;11.90;53.10;;;;;;5028744;28;20086;-83
2021/04/22 00:53:36;;;;;;;3.23;2.47;;;11.90;53.10;;;;;;5034661;28;20029;-83
2021/04/22 00:56:02;;;;;;;4.40;2.60;;;11.80;53.30;;;;;;5032909;28;20045;-82
2021/04/22 00:58:28;;;;;;;6.17;2.93;;;11.90;53.30;;;;;;5028282;28;20124;-82
2021/04/22 01:00:57;;;;;;;3.30;2.87;;;11.90;53.10;;;;;;5033876;28;20555;-83
2021/04/22 01:03:26;;;;;;;3.93;3.27;;;11.90;52.80;;;;;;5030687;28;20034;-82
2021/04/22 01:05:56;;;;;;;3.80;2.90;;;11.90;52.50;;;;;;5024067;28;20075;-82
2021/04/22 01:08:22;;;;;;;5.20;2.53;;;11.90;52.20;;;;;;5043526;28;20180;-82
2021/04/22 01:10:47;;;;;;;6.80;2.93;;;11.90;52.20;;;;;;5026711;28;20520;-82
2021/04/22 01:13:13;;;;;;;4.30;2.40;;;11.90;52.40;;;;;;5028568;28;20160;-82
2021/04/22 01:15:39;;;;;;;3.50;2.60;;;11.90;52.80;;;;;;5026254;28;20470;-82
2021/04/22 01:18:06;;;;;;;4.37;2.83;;;11.80;53.00;;;;;;5032646;28;20502;-82
2021/04/22 01:20:40;;;;;;;4.63;2.90;;;11.80;53.20;;;;;;5033924;28;20029;-82
2021/04/22 01:23:07;;;;;;;8.87;2.60;;;11.80;53.00;;;;;;5032640;28;20424;-82
2021/04/22 01:25:36;;;;;;;4.40;2.73;;;11.80;52.70;;;;;;5025610;28;20029;-82
2021/04/22 01:28:05;;;;;;;3.70;3.10;;;11.90;52.50;;;;;;5032884;28;20036;-82
2021/04/22 01:30:32;;;;;;;3.43;2.63;;;11.80;52.50;;;;;;5029079;28;20034;-82
2021/04/22 01:32:58;;;;;;;3.17;2.57;;;11.80;52.90;;;;;;5025535;28;20469;-82
2021/04/22 01:35:28;;;;;;;5.43;3.47;;;11.80;53.20;;;;;;5026804;28;20044;-82
2021/04/22 01:37:54;;;;;;;9.97;4.10;;;11.80;53.50;;;;;;5032654;28;20112;-82
2021/04/22 01:40:21;;;;;;;5.63;4.00;;;11.80;53.90;;;;;;5032220;28;20029;-82
2021/04/22 01:42:47;;;;;;;5.73;3.40;;;11.80;54.30;;;;;;5032126;28;20034;-83
2021/04/22 01:45:13;;;;;;;5.97;3.50;;;11.70;54.40;;;;;;5032476;28;20371;-83
2021/04/22 01:47:40;;;;;;;4.50;3.30;;;11.70;54.30;;;;;;5031313;28;20473;-82
2021/04/22 01:50:08;;;;;;;4.20;3.30;;;11.60;54.20;;;;;;5025474;28;20363;-83
2021/04/22 01:52:34;;;;;;;5.60;3.43;;;11.50;54.20;;;;;;5030955;28;20059;-83
2021/04/22 01:55:00;;;;;;;6.77;3.47;;;11.50;54.30;;;;;;5032410;28;20057;-83
2021/04/22 01:57:26;;;;;;;12.17;3.70;;;11.40;54.50;;;;;;5031040;28;20033;-83
2021/04/22 01:59:52;;;;;;;4.20;3.03;;;11.30;54.70;;;;;;5020296;28;20028;-83
2021/04/22 02:02:17;;;;;;;5.27;3.17;;;11.30;54.80;;;;;;5027451;28;20144;-83
2021/04/22 02:04:44;;;;;;;5.70;3.50;;;11.30;54.90;;;;;;5033069;28;20029;-83
2021/04/22 02:07:12;;;;;;;8.70;3.80;;;11.20;55.30;;;;;;5027910;28;20091;-83
2021/04/22 02:09:37;;;;;;;4.00;3.57;;;11.20;55.70;;;;;;5030774;28;20112;-83
2021/04/22 02:12:04;;;;;;;5.17;3.23;;;11.20;55.80;;;;;;5029372;28;20482;-83
2021/04/22 02:14:29;;;;;;;4.37;3.40;;;11.20;55.90;;;;;;5028297;28;20358;-83
2021/04/22 02:16:55;;;;;;;7.53;5.10;;;11.20;55.90;;;;;;5029947;28;20025;-83
2021/04/22 02:19:23;;;;;;;4.00;3.20;;;11.10;56.20;;;;;;5029522;28;20101;-83
2021/04/22 02:21:49;;;;;;;3.93;2.70;;;11.10;56.60;;;;;;5031045;28;20374;-83
2021/04/22 02:24:16;;;;;;;6.53;3.10;;;11.10;56.60;;;;;;5029738;28;20022;-83
2021/04/22 02:26:42;;;;;;;6.03;3.03;;;11.10;56.90;;;;;;5030952;28;20029;-83
2021/04/22 02:29:07;;;;;;;3.57;3.00;;;11.10;57.00;;;;;;5028905;28;20026;-83
2021/04/22 02:31:33;;;;;;;3.87;3.10;;;11.00;57.30;;;;;;5021238;28;20088;-83
2021/04/22 02:33:59;;;;;;;4.67;3.40;;;11.00;57.50;;;;;;5030811;28;20884;-83
2021/04/22 02:36:24;;;;;;;4.10;3.10;;;11.00;57.50;;;;;;5022283;28;20032;-83
2021/04/22 02:38:50;;;;;;;4.23;2.53;;;10.90;57.70;;;;;;5028474;28;20087;-83
2021/04/22 02:41:16;;;;;;;4.60;3.30;;;10.90;57.70;;;;;;5027429;28;20080;-83
2021/04/22 02:43:41;;;;;;;8.70;3.80;;;11.00;57.80;;;;;;5031209;28;20025;-83
2021/04/22 02:46:07;;;;;;;5.13;3.50;;;11.00;57.60;;;;;;5031312;28;20104;-83
2021/04/22 02:48:33;;;;;;;3.73;3.17;;;10.90;57.50;;;;;;5030816;28;20504;-83
2021/04/22 02:51:00;;;;;;;6.17;3.57;;;11.00;57.50;;;;;;5030778;28;20030;-83
2021/04/22 02:53:26;;;;;;;6.77;4.00;;;11.00;57.30;;;;;;5018250;28;20530;-83
2021/04/22 02:55:52;;;;;;;3.83;2.87;;;11.00;57.10;;;;;;5031358;28;20045;-83
2021/04/22 02:58:19;;;;;;;8.07;3.37;;;10.80;56.80;;;;;;5017333;28;20095;-83
2021/04/22 03:00:47;;;;;;;5.90;2.87;;;10.80;57.00;;;;;;5030763;28;20029;-83
2021/04/22 03:03:12;;;;;;;3.77;2.80;;;10.80;57.10;;;;;;5029269;28;20021;-83
2021/04/22 03:05:38;;;;;;;4.27;2.87;;;10.80;57.30;;;;;;5031856;28;20021;-83
2021/04/22 03:08:05;;;;;;;5.13;3.10;;;10.70;57.50;;;;;;5031568;28;20056;-83
2021/04/22 03:10:32;;;;;;;4.20;2.80;;;10.50;57.80;;;;;;5030906;28;20542;-83
2021/04/22 03:12:58;;;;;;;7.63;3.83;;;10.50;58.10;;;;;;5030251;28;20032;-83
2021/04/22 03:15:25;;;;;;;6.40;3.33;;;10.50;58.20;;;;;;5030406;28;20041;-83
2021/04/22 03:17:52;;;;;;;6.03;3.73;;;10.50;58.00;;;;;;5030965;28;20462;-83
2021/04/22 03:20:19;;;;;;;5.40;3.90;;;10.60;57.90;;;;;;5020575;28;20382;-82
2021/04/22 03:22:46;;;;;;;8.00;4.67;;;10.50;57.70;;;;;;5025612;28;20033;-83
2021/04/22 03:25:14;;;;;;;7.03;4.47;;;10.50;57.60;;;;;;5022070;28;20581;-83
2021/04/22 03:27:40;;;;;;;6.13;4.43;;;10.30;58.00;;;;;;5031294;28;20021;-83
2021/04/22 03:30:09;;;;;;;7.47;3.57;;;10.30;58.30;;;;;;5027631;28;20109;-83
2021/04/22 03:32:35;;;;;;;6.90;4.27;;;10.20;58.30;;;;;;5031020;28;20033;-83
2021/04/22 03:35:01;;;;;;;8.23;4.77;;;10.20;58.50;;;;;;5030712;28;20043;-83
2021/04/22 03:37:26;;;;;;;13.50;5.27;;;10.20;58.50;;;;;;5021916;28;20034;-83
2021/04/22 03:39:52;;;;;;;9.50;4.60;;;10.20;58.70;;;;;;5012923;28;20382;-82
2021/04/22 03:42:18;;;;;;;6.10;4.17;;;10.20;58.90;;;;;;5025882;28;20116;-83
2021/04/22 03:44:47;;;;;;;7.27;4.50;;;10.10;59.00;;;;;;5014454;28;20053;-83
2021/04/22 03:47:13;;;;;;;5.23;4.13;;;10.10;59.20;;;;;;5029671;28;20025;-83
2021/04/22 03:49:40;;;;;;;4.73;4.00;;;10.20;59.10;;;;;;5030808;28;20017;-83
2021/04/22 03:52:07;;;;;;;5.97;4.13;;;10.20;59.10;;;;;;5025538;28;20490;-83
2021/04/22 03:54:33;;;;;;;6.10;4.27;;;10.20;59.10;;;;;;5017051;28;20050;-83
2021/04/22 03:57:00;;;;;;;6.53;4.73;;;10.20;59.10;;;;;;5027666;28;20036;-83
2021/04/22 03:59:27;;;;;;;10.07;4.30;;;10.30;59.10;;;;;;5030804;28;20048;-83
2021/04/22 04:01:52;;;;;;;5.90;4.10;;;10.30;58.90;;;;;;5030180;28;20025;-83
2021/04/22 04:04:18;;;;;;;5.07;3.63;;;10.30;58.80;;;;;;5030379;28;20393;-83
2021/04/22 04:06:44;;;;;;;11.20;4.43;;;10.40;58.80;;;;;;5017402;28;20520;-83
2021/04/22 04:09:10;;;;;;;9.30;5.33;;;10.40;58.60;;;;;;5019075;28;20026;-83
2021/04/22 04:11:35;;;;;;;10.83;7.70;;;10.40;58.30;;;;;;5031486;28;20104;-83
2021/04/22 04:14:02;;;;;;;12.60;9.40;;;10.40;58.30;;;;;;5030776;28;20121;-83
2021/04/22 04:16:28;;;;;;;12.80;7.27;;;10.40;58.50;;;;;;5026818;28;20038;-83
2021/04/22 04:18:53;;;;;;;8.50;6.47;;;10.40;58.80;;;;;;5035614;28;20025;-83
2021/04/22 04:21:19;;;;;;;9.87;6.97;;;10.40;58.90;;;;;;5024572;28;20076;-83
2021/04/22 04:23:45;;;;;;;7.13;5.97;;;10.40;58.90;;;;;;5026724;28;20018;-82
2021/04/22 04:26:10;;;;;;;9.43;5.77;;;10.50;59.00;;;;;;5033173;28;20026;-82
2021/04/22 04:28:36;;;;;;;8.30;6.27;;;10.40;58.70;;;;;;5033549;28;20041;-83
2021/04/22 04:31:02;;;;;;;7.57;5.83;;;10.50;58.80;;;;;;5033790;28;20038;-83
2021/04/22 04:33:28;;;;;;;10.03;5.97;;;10.50;58.90;;;;;;5019934;28;20029;-83
2021/04/22 04:35:54;;;;;;;13.87;6.03;;;10.50;59.00;;;;;;5032950;28;20115;-83
2021/04/22 04:38:20;;;;;;;7.57;5.07;;;10.50;58.90;;;;;;5033373;28;20067;-83
2021/04/22 04:40:46;;;;;;;10.73;5.33;;;10.60;58.70;;;;;;5033295;28;20021;-83
2021/04/22 04:43:11;;;;;;;5.97;4.63;;;10.70;58.50;;;;;;5034793;28;20450;-83
2021/04/22 04:45:37;;;;;;;6.70;5.00;;;10.70;58.00;;;;;;5033457;28;20029;-83
2021/04/22 04:48:03;;;;;;;6.73;4.20;;;10.70;57.70;;;;;;5025550;28;20030;-83
2021/04/22 04:50:29;;;;;;;10.00;4.63;;;10.70;57.50;;;;;;5026946;28;20051;-83
2021/04/22 04:52:55;;;;;;;8.50;5.00;;;10.70;57.40;;;;;;5016323;28;20033;-83
2021/04/22 04:55:21;;;;;;;8.00;4.63;;;10.70;57.40;;;;;;5022161;28;20115;-83
2021/04/22 04:57:47;;;;;;;9.93;4.60;;;10.70;57.60;;;;;;5030534;28;20038;-83
2021/04/22 05:00:15;;;;;;;7.60;4.93;;;10.80;57.70;;;;;;5025286;28;20101;-83
2021/04/22 05:02:41;;;;;;;9.13;5.07;;;10.70;57.70;;;;;;5028328;28;20045;-83
2021/04/22 05:05:07;;;;;;;13.60;5.60;;;10.70;57.80;;;;;;5034047;28;20025;-83
2021/04/22 05:07:33;;;;;;;9.97;5.10;;;10.70;58.10;;;;;;5032615;28;20112;-83
2021/04/22 05:09:59;;;;;;;11.77;5.40;;;10.70;58.40;;;;;;5028772;28;20120;-83
2021/04/22 05:12:25;;;;;;;9.87;5.23;;;10.70;58.60;;;;;;5034388;28;20087;-83
2021/04/22 05:14:51;;;;;;;9.03;5.20;;;10.70;59.10;;;;;;5027998;28;20026;-83
2021/04/22 05:17:17;;;;;;;6.90;4.27;;;10.70;58.60;;;;;;5022900;28;20025;-83
2021/04/22 05:19:43;;;;;;;7.90;4.67;;;10.70;58.70;;;;;;5029042;28;20462;-83
2021/04/22 05:22:09;;;;;;;11.53;4.83;;;10.70;58.70;;;;;;5033528;28;20029;-83
2021/04/22 05:24:35;;;;;;;12.40;5.90;;;10.80;58.60;;;;;;5032766;28;20108;-83
2021/04/22 05:27:01;;;;;;;8.67;5.83;;;10.80;58.50;;;;;;5032769;28;20104;-83
2021/04/22 05:29:27;;;;;;;14.30;6.33;;;10.90;58.60;;;;;;5020677;28;20053;-83
2021/04/22 05:31:56;;;;;;;10.23;7.40;;;10.90;58.50;;;;;;5032511;28;20057;-83
2021/04/22 05:34:22;;;;;;;9.43;6.40;;;10.90;58.40;;;;;;5033024;28;20044;-83
2021/04/22 05:36:47;;;;;;;13.37;7.33;;;10.90;58.30;;;;;;5032268;28;20029;-83
2021/04/22 05:39:13;;;;;;;11.77;6.90;;;11.00;58.50;;;;;;5029948;28;20029;-83
2021/04/22 05:41:39;;;;;;;17.50;7.67;;;11.00;58.60;;;;;;5033908;28;20100;-83
2021/04/22 05:44:05;;;;;;;19.27;7.20;;;11.00;58.60;;;;;;5032190;28;20037;-83
2021/04/22 05:46:32;;;;;;;12.73;6.47;;;11.00;58.60;;;;;;5030206;28;20458;-84
2021/04/22 05:48:57;;;;;;;11.00;6.47;;;11.00;58.50;;;;;;5031705;28;20128;-83
2021/04/22 05:51:23;;;;;;;7.33;6.17;;;11.10;58.60;;;;;;5033354;28;20116;-83
2021/04/22 05:53:49;;;;;;;13.73;7.00;;;11.10;58.50;;;;;;5028766;28;20037;-83
2021/04/22 05:56:15;;;;;;;16.23;7.03;;;11.10;58.50;;;;;;5031799;28;20033;-83
2021/04/22 05:58:41;;;;;;;12.23;7.50;;;11.20;58.40;;;;;;5032566;28;20428;-83
2021/04/22 06:01:08;;;;;;;10.37;7.03;;;11.20;58.30;;;;;;5032852;28;20105;-83
2021/04/22 06:03:34;;;;;;;8.77;6.43;;;11.20;58.20;;;;;;5027932;28;20033;-83
2021/04/22 06:06:00;;;;;;;9.33;6.40;;;11.30;58.30;;;;;;5020753;28;20026;-84
2021/04/22 06:08:26;;;;;;;11.90;7.33;;;11.30;58.10;;;;;;5025546;28;20382;-83
2021/04/22 06:10:52;;;;;;;11.67;6.77;;;11.30;58.10;;;;;;5031725;28;20029;-83
2021/04/22 06:13:18;;;;;;;14.43;6.97;;;11.40;58.00;;;;;;5032451;28;20029;-83
2021/04/22 06:15:44;;;;;;;12.53;7.60;;;11.40;57.80;;;;;;5028742;28;20489;-83
2021/04/22 06:18:10;;;;;;;8.33;7.33;;;11.50;57.80;;;;;;5033116;28;20037;-83
2021/04/22 06:20:36;;;;;;;13.17;7.10;;;11.50;57.80;;;;;;5030750;28;20034;-84
2021/04/22 06:23:02;;;;;;;8.87;5.67;;;11.50;57.70;;;;;;5032299;28;20026;-84
2021/04/22 06:25:30;;;;;;;9.97;7.40;;;11.60;57.60;;;;;;5028827;28;20080;-84
2021/04/22 06:27:59;;;;;;;10.70;6.37;;;11.60;57.40;;;;;;5012602;28;20026;-84
2021/04/22 06:30:26;;;;;;;8.10;5.73;;;11.60;57.30;;;;;;5021298;28;20040;-83
2021/04/22 06:32:52;;;;;;;6.93;5.10;;;11.70;57.10;;;;;;5026341;28;20482;-84
2021/04/22 06:35:18;;;;;;;6.37;5.53;;;11.70;56.80;;;;;;5028358;28;20040;-83
2021/04/22 06:37:44;;;;;;;6.33;5.20;;;11.80;56.60;;;;;;5020801;28;20034;-83
2021/04/22 06:40:14;;;;;;;7.23;5.20;;;11.80;56.40;;;;;;5024911;28;20025;-83
2021/04/22 06:42:41;;;;;;;10.73;5.13;;;11.80;56.10;;;;;;5029950;28;20049;-83
2021/04/22 06:45:08;;;;;;;8.30;5.70;;;11.80;56.00;;;;;;5020313;28;20021;-83
2021/04/22 06:47:35;;;;;;;8.03;5.90;;;11.90;56.10;;;;;;5030667;28;20124;-83
2021/04/22 06:50:01;;;;;;;10.10;6.63;;;11.90;56.10;;;;;;5031485;28;20477;-83
2021/04/22 06:52:27;;;;;;;12.07;7.20;;;11.90;56.20;;;;;;5018167;28;20477;-83
2021/04/22 06:54:53;;;;;;;17.60;6.90;;;11.80;56.50;;;;;;5028652;28;20049;-83
2021/04/22 06:57:18;;;;;;;8.57;6.53;;;11.80;57.10;;;;;;5031695;28;20025;-83
2021/04/22 06:59:44;;;;;;;9.07;6.57;;;11.80;57.50;;;;;;5029850;28;20034;-83
2021/04/22 07:02:10;;;;;;;12.90;6.90;;;11.80;57.90;;;;;;5030350;28;20028;-83
2021/04/22 07:04:36;;;;;;;11.00;7.37;;;11.90;58.10;;;;;;5030889;28;20065;-83
2021/04/22 07:07:03;;;;;;;15.63;7.47;;;11.90;58.30;;;;;;5023744;28;20397;-83
2021/04/22 07:09:32;;;;;;;10.53;8.57;;;11.90;58.50;;;;;;5028110;28;20538;-83
2021/04/22 07:11:58;;;;;;;12.90;8.37;;;12.00;58.90;;;;;;5030148;28;20033;-83
2021/04/22 07:14:24;;;;;;;11.43;7.80;;;12.00;59.10;;;;;;5031446;28;20494;-83
2021/04/22 07:16:50;;;;;;;12.03;8.57;;;12.00;59.20;;;;;;5030855;28;20037;-83
2021/04/22 07:19:15;;;;;;;11.17;8.00;;;12.00;59.40;;;;;;5030899;28;20401;-84
2021/04/22 07:21:41;;;;;;;14.00;8.07;;;12.00;59.70;;;;;;5031319;28;20033;-84
2021/04/22 07:24:07;;;;;;;13.17;8.83;;;11.90;59.90;;;;;;5031788;28;20385;-84
2021/04/22 07:26:33;;;;;;;14.70;9.63;;;12.00;60.20;;;;;;5027361;28;20017;-84
2021/04/22 07:28:59;;;;;;;13.10;8.77;;;12.00;60.30;;;;;;5032384;28;20114;-84
2021/04/22 07:31:24;;;;;;;11.10;8.00;;;11.90;60.50;;;;;;5027084;28;20033;-84
2021/04/22 07:33:50;;;;;;;12.93;8.27;;;11.80;60.70;;;;;;5031959;28;20036;-84
2021/04/22 07:36:18;;;;;;;13.40;8.53;;;11.80;60.90;;;;;;5031196;28;20056;-84
2021/04/22 07:38:43;;;;;;;16.57;10.03;;;11.80;61.20;;;;;;5029280;28;20508;-84
2021/04/22 07:41:09;;;;;;;18.33;9.67;;;11.80;61.50;;;;;;5026284;28;20062;-84
2021/04/22 07:43:35;;;;;;;12.70;8.27;;;11.90;61.80;;;;;;5027617;28;20029;-84
2021/04/22 07:46:02;;;;;;;11.17;8.13;;;11.90;62.00;;;;;;5027050;28;20033;-84
2021/04/22 07:48:29;;;;;;;9.73;7.93;;;11.90;62.10;;;;;;5029684;28;20488;-84
2021/04/22 07:50:55;;;;;;;8.93;7.37;;;11.90;62.30;;;;;;5034691;28;20063;-84
2021/04/22 07:53:21;;;;;;;9.57;6.80;;;11.90;62.40;;;;;;5036695;28;20116;-84
2021/04/22 07:55:47;;;;;;;17.83;9.77;;;12.00;62.50;;;;;;5018853;28;20196;-84
2021/04/22 07:58:17;;;;;;;10.87;7.33;;;12.00;62.60;;;;;;5033897;28;20029;-84
2021/04/22 08:00:44;;;;;;;11.17;7.23;;;11.90;62.70;;;;;;5017779;28;20034;-84
2021/04/22 08:03:13;;;;;;;9.73;7.67;;;11.90;62.60;;;;;;5033647;28;20029;-84
2021/04/22 08:05:39;;;;;;;10.37;7.43;;;11.80;63.00;;;;;;5034132;28;20070;-84
2021/04/22 08:08:07;;;;;;;9.00;7.67;;;11.70;63.30;;;;;;5030858;28;20041;-84
2021/04/22 08:10:34;;;;;;;10.27;7.70;;;11.70;63.50;;;;;;5028826;28;20033;-85
2021/04/22 08:13:03;;;;;;;15.97;9.83;;;11.70;63.40;;;;;;5028289;28;20052;-84
2021/04/22 08:15:29;;;;;;;10.07;7.97;;;11.70;63.60;;;;;;5027069;28;20039;-84
2021/04/22 08:17:55;;;;;;;14.47;8.73;;;11.90;63.60;;;;;;5017841;28;20037;-84
2021/04/22 08:20:26;;;;;;;9.93;8.57;;;12.00;63.10;;;;;;5035551;28;20059;-84
2021/04/22 08:22:54;;;;;;;14.53;9.67;;;12.10;63.30;;;;;;5033007;28;20032;-84
2021/04/22 08:25:28;;;;;;;11.30;8.53;;;12.10;63.40;;;;;;5032044;28;20032;-85
2021/04/22 08:27:55;;;;;;;10.97;8.33;;;12.10;63.60;;;;;;5031355;28;20037;-84
2021/04/22 08:30:30;;;;;;;10.47;8.77;;;12.10;63.80;;;;;;5035111;28;20076;-85
2021/04/22 08:33:00;;;;;;;12.07;8.80;;;12.10;64.00;;;;;;5026943;28;20465;-84
2021/04/22 08:35:26;;;;;;;13.93;9.00;;;12.20;64.00;;;;;;5032994;28;20489;-85
2021/04/22 08:38:07;;;;;;;11.00;8.00;;;12.20;64.00;;;;;;5031432;28;20061;-85
2021/04/22 08:40:34;;;;;;;10.17;7.97;;;12.30;64.40;;;;;;5027253;28;20041;-85
2021/04/22 08:43:00;;;;;;;11.80;9.13;;;12.30;64.20;;;;;;5030416;28;20029;-85
2021/04/22 08:45:26;;;;;;;13.50;8.87;;;12.30;64.30;;;;;;5025054;28;20033;-85
2021/04/22 08:47:52;;;;;;;12.27;9.00;;;12.20;64.20;;;;;;5031543;28;20033;-84
2021/04/22 08:50:22;;;;;;;11.67;9.00;;;12.20;64.30;;;;;;5032840;28;20112;-85
2021/04/22 08:52:55;;;;;;;7.67;6.33;;;12.30;64.30;;;;;;5019927;28;20120;-85
2021/04/22 08:55:24;;;;;;;8.87;7.03;;;12.20;63.80;;;;;;5027461;28;20037;-84
2021/04/22 08:57:50;;;;;;;10.23;7.60;;;12.20;64.00;;;;;;5034505;28;20034;-84
2021/04/22 09:00:20;;;;;;;9.17;7.30;;;12.10;64.00;;;;;;5031443;28;20807;-84
2021/04/22 09:02:46;;;;;;;10.87;7.53;;;12.20;64.10;;;;;;5030442;28;20034;-84
2021/04/22 09:05:18;;;;;;;9.13;7.63;;;12.20;63.90;;;;;;5017790;28;20490;-84
2021/04/22 09:07:44;;;;;;;10.52;7.80;;;12.20;64.00;;;;;;5021960;28;20037;-84
2021/04/22 09:10:14;;;;;;;12.57;8.10;;;12.20;64.30;;;;;;5023048;28;20030;-84
2021/04/22 09:12:40;;;;;;;12.47;9.10;;;12.20;64.20;;;;;;5026901;28;20531;-84
2021/04/22 09:15:09;;;;;;;9.33;8.00;;;12.30;64.20;;;;;;5033711;28;20164;-84
2021/04/22 09:17:35;;;;;;;12.07;9.10;;;12.30;64.20;;;;;;5025268;28;20390;-84
2021/04/22 09:20:02;;;;;;;14.63;10.00;;;12.30;64.40;;;;;;5029661;28;20029;-84
2021/04/22 09:22:43;;;;;;;18.53;10.17;;;12.40;64.50;;;;;;5024657;28;20032;-84
2021/04/22 09:25:17;;;;;;;13.87;10.30;;;12.40;64.60;;;;;;5019061;28;20029;-84
2021/04/22 09:27:46;;;;;;;13.37;9.70;;;12.50;64.50;;;;;;5025828;28;20112;-84
2021/04/22 09:30:15;;;;;;;14.33;11.13;;;12.50;64.40;;;;;;5028168;28;20485;-83
2021/04/22 09:32:41;;;;;;;18.43;12.13;;;12.50;64.40;;;;;;5031851;28;20033;-84
2021/04/22 09:35:15;;;;;;;14.70;9.83;;;12.60;64.80;;;;;;5032854;28;20045;-84
2021/04/22 09:37:47;;;;;;;11.53;9.13;;;12.60;64.90;;;;;;5034018;28;20022;-84
2021/04/22 09:40:28;;;;;;;11.43;8.45;;;12.70;65.10;;;;;;5032726;28;20021;-84
2021/04/22 09:42:55;;;;;;;12.97;9.07;;;12.90;65.10;;;;;;5029683;28;20120;-84
2021/04/22 09:45:26;;;;;;;10.13;8.20;;;13.00;64.70;;;;;;5023561;28;20018;-84
2021/04/22 09:47:52;;;;;;;8.70;6.90;;;13.10;64.40;;;;;;5033073;28;20026;-84
2021/04/22 09:50:22;;;;;;;11.27;8.00;;;13.10;63.70;;;;;;5018993;28;20045;-84
2021/04/22 09:52:55;;;;;;;10.63;7.50;;;13.10;63.20;;;;;;5024933;28;20029;-84
2021/04/22 09:55:25;;;;;;;9.57;8.00;;;13.20;63.10;;;;;;5016681;28;20046;-84
2021/04/22 09:57:50;;;;;;;12.90;8.87;;;13.30;63.10;;;;;;5030105;28;20112;-84
2021/04/22 10:00:32;;;;;;;18.07;10.97;;;13.40;63.10;;;;;;5026228;28;20108;-85
2021/04/22 10:03:00;;;;;;;12.43;10.20;;;13.60;63.60;;;;;;5029179;28;20050;-84
2021/04/22 10:05:27;;;;;;;10.57;8.80;;;13.70;63.60;;;;;;5027643;28;20022;-84
2021/04/22 10:08:13;;;;;;;11.60;8.07;;;13.80;63.70;;;;;;5026995;28;20025;-85
2021/04/22 10:10:43;;;;;;;9.40;7.73;;;13.90;63.60;;;;;;5029387;28;20071;-84
2021/04/22 10:13:12;;;;;;;13.87;8.60;;;14.00;63.00;;;;;;5031741;28;20108;-85
2021/04/22 10:15:48;;;;;;;12.77;7.87;;;14.10;62.50;;;;;;5012654;28;20116;-84
2021/04/22 10:18:13;;;;;;;9.33;7.73;;;14.10;62.20;;;;;;5023890;28;20036;-84
2021/04/22 10:20:42;;;;;;;9.30;8.33;;;14.20;62.00;;;;;;5031978;28;20026;-84
2021/04/22 10:23:10;;;;;;;9.27;7.60;;;14.20;61.80;;;;;;5027232;28;20056;-84
2021/04/22 10:25:43;;;;;;;14.27;7.70;;;14.20;61.60;;;;;;5031143;28;20029;-85
2021/04/22 10:28:10;;;;;;;;;;;14.30;61.10;;;;;;5030000;28;20025;-84
2021/04/22 10:30:39;;;;;;;10.23;8.03;;;14.40;60.90;;;;;;5031099;28;19909;-84
2021/04/22 10:33:06;;;;;;;9.57;8.00;;;14.60;60.80;;;;;;5013462;28;20386;-85
2021/04/22 10:35:35;;;;;;;11.80;7.70;;;14.70;59.70;;;;;;5015165;28;20105;-84
2021/04/22 10:38:03;;;;;;;9.33;6.30;;;14.90;58.90;;;;;;5018183;28;20036;-85
2021/04/22 10:40:32;;;;;;;10.33;6.93;;;15.20;58.70;;;;;;5029174;28;20026;-85
2021/04/22 10:43:00;;;;;;;11.10;7.53;;;15.50;58.00;;;;;;5053198;28;20021;-85
2021/04/22 10:45:27;;;;;;;9.73;8.13;;;15.60;57.20;;;;;;5034770;28;20033;-84
2021/04/22 10:47:54;;;;;;;9.23;7.83;;;15.80;57.10;;;;;;5030615;28;20049;-84
2021/04/22 10:50:34;;;;;;;10.30;7.28;;;15.90;56.40;;;;;;5032170;28;20033;-83
2021/04/22 10:53:02;;;;;;;10.63;7.20;;;16.00;56.10;;;;;;5023174;28;20114;-83
2021/04/22 10:55:30;;;;;;;9.90;7.15;;;16.20;56.40;;;;;;5011790;28;20056;-83
2021/04/22 10:57:58;;;;;;;11.10;7.07;;;16.40;56.10;;;;;;5023290;28;20029;-83
2021/04/22 11:00:29;;;;;;;7.70;6.53;;;16.60;55.40;;;;;;5027679;28;20103;-83
2021/04/22 11:02:57;;;;;;;6.65;5.68;;;16.80;54.70;;;;;;5023907;28;20033;-83
2021/04/22 11:05:33;;;;;;;7.90;6.25;;;16.80;54.60;;;;;;5040729;28;20439;-82
2021/04/22 11:08:05;;;;;;;10.07;6.03;;;16.80;53.80;;;;;;5027529;28;20030;-82
2021/04/22 11:10:46;;;;;;;6.75;5.65;;;16.90;52.80;;;;;;5030447;28;20030;-83
2021/04/22 11:13:27;;;;;;;6.47;5.70;;;16.80;51.80;;;;;;5028640;28;20038;-83
2021/04/22 11:15:53;;;;;;;7.80;5.88;;;16.90;51.80;;;;;;5021502;28;20033;-82
2021/04/22 11:18:19;;;;;;;8.50;5.90;;;17.00;51.20;;;;;;5013161;28;20025;-82
2021/04/22 11:20:46;;;;;;;7.45;5.57;;;17.00;50.20;;;;;;5031669;28;20481;-82
2021/04/22 11:23:24;;;;;;;12.48;5.00;;;16.90;49.60;;;;;;5030792;28;20033;-82
2021/04/22 11:25:51;;;;;;;11.90;5.32;;;16.80;49.70;;;;;;5034142;28;20025;-82
2021/04/22 11:28:37;;;;;;;8.23;5.90;;;16.90;49.70;;;;;;5026708;28;20056;-82
2021/04/22 11:31:15;;;;;;;10.02;3.47;;;17.00;49.70;;;;;;5023322;28;20043;-82
2021/04/22 11:33:41;;;;;;;5.43;2.70;;;16.90;49.00;;;;;;5015980;28;20121;-81
2021/04/22 11:36:22;;;;;;;3.53;3.10;;;16.50;49.30;;;;;;5027643;28;20026;-82
2021/04/22 11:38:56;;;;;;;4.33;3.17;;;16.20;50.30;;;;;;5034670;28;20033;-82
2021/04/22 11:41:25;;;;;;;5.90;2.73;;;15.90;51.30;;;;;;5035283;28;20116;-82
2021/04/22 11:44:12;;;;;;;6.03;3.90;;;15.40;52.50;;;;;;5035358;28;20025;-81
2021/04/22 11:46:42;;;;;;;7.50;3.20;;;15.20;53.70;;;;;;5024265;28;20100;-82
2021/04/22 11:49:10;;;;;;;3.83;2.87;;;14.90;54.00;;;;;;5034576;28;20040;-82
2021/04/22 11:51:40;;;;;;;4.03;2.77;;;14.70;54.80;;;;;;5033065;28;20033;-82
2021/04/22 11:54:28;;;;;;;5.37;2.93;;;14.50;55.10;;;;;;5021799;28;20397;-82
2021/04/22 11:57:05;;;;;;;4.23;2.90;;;14.40;55.70;;;;;;5028524;28;20033;-82
2021/04/22 11:59:32;;;;;;;6.30;3.63;;;14.20;55.60;;;;;;5026430;28;20037;-82
2021/04/22 12:02:08;;;;;;;4.90;3.50;;;14.00;56.20;;;;;;5022421;28;20389;-82
2021/04/22 12:04:56;;;;;;;6.23;3.30;;;14.00;57.10;;;;;;5020378;28;20469;-82
2021/04/22 12:07:22;;;;;;;5.13;4.13;;;13.90;57.10;;;;;;5031107;28;20121;-82
2021/04/22 12:09:52;;;;;;;5.00;3.47;;;13.70;57.10;;;;;;5032795;28;20029;-82
2021/04/22 12:12:30;;;;;;;7.33;5.43;;;13.70;57.70;;;;;;5035005;28;20408;-82
2021/04/22 12:14:59;;;;;;;9.50;4.27;;;13.70;58.20;;;;;;5028866;28;20049;-82
2021/04/22 12:17:27;;;;;;;8.30;4.37;;;13.80;58.40;;;;;;5025273;28;20034;-82
2021/04/22 12:20:09;;;;;;;6.27;4.33;;;13.70;58.60;;;;;;5020009;28;20025;-83
2021/04/22 12:22:42;;;;;;;14.93;6.37;;;13.80;59.20;;;;;;5040697;28;20032;-83
2021/04/22 12:25:14;;;;;;;8.33;6.03;;;14.10;58.80;;;;;;5043121;28;20021;-83
2021/04/22 12:27:52;;;;;;;8.52;6.35;;;14.00;59.10;;;;;;5031270;28;20121;-83
2021/04/22 12:30:21;;;;;;;8.50;5.83;;;14.00;59.70;;;;;;5032756;28;20040;-84
2021/04/22 12:33:00;;;;;;;8.77;6.67;;;13.90;60.20;;;;;;5029073;28;20022;-82
2021/04/22 12:35:29;;;;;;;11.43;7.97;;;13.90;60.60;;;;;;5033794;28;20029;-82
2021/04/22 12:37:56;;;;;;;8.80;7.33;;;14.00;60.60;;;;;;5033731;28;20481;-82
2021/04/22 12:40:23;;;;;;;8.60;6.40;;;14.00;60.00;;;;;;5034148;28;20500;-83
2021/04/22 12:42:50;;;;;;;9.07;7.17;;;13.90;59.60;;;;;;5032914;28;20040;-83
2021/04/22 12:45:22;;;;;;;10.63;6.50;;;13.90;59.90;;;;;;5026497;28;20025;-83
2021/04/22 12:47:57;;;;;;;8.68;6.80;;;14.10;59.40;;;;;;5032414;28;20473;-84